Time;durP1;ratioP1;P1;durP2;ratioP2;P2;SDS_P1;SDS_P2;PMS_P1;PMS_P2;Temp;Humidity;BMP_temperature;BMP_pressure;BME280_temperature;BME280_humidity;BME280_pressure;Samples;Min_cycle;Max_cycle;Signal;HPM_P1;HPM_P2
2023/10/09 00:02:59;;;;;;;68.78;30.63;;;14.40;99.90;;;;;;5031804;28;20862;-75
2023/10/09 00:05:38;;;;;;;74.60;30.80;;;14.30;99.90;;;;;;5030548;28;21156;-75
2023/10/09 00:08:04;;;;;;;69.78;29.45;;;14.30;99.90;;;;;;5030736;28;20391;-76
2023/10/09 00:10:44;;;;;;;68.90;30.70;;;14.20;99.90;;;;;;5030571;28;20386;-75
2023/10/09 00:13:10;;;;;;;68.63;29.90;;;14.20;99.90;;;;;;5032213;28;20387;-76
2023/10/09 00:15:36;;;;;;;68.63;30.47;;;14.10;99.90;;;;;;5032352;28;20386;-74
2023/10/09 00:18:05;;;;;;;70.53;31.27;;;14.10;99.90;;;;;;5031184;28;20382;-74
2023/10/09 00:20:39;;;;;;;72.03;30.80;;;14.10;99.90;;;;;;5031239;28;20375;-76
2023/10/09 00:23:12;;;;;;;65.50;29.70;;;14.10;99.90;;;;;;5030686;28;20383;-77
2023/10/09 00:25:44;;;;;;;64.13;30.25;;;14.00;99.90;;;;;;5031286;28;20990;-76
2023/10/09 00:28:10;;;;;;;68.88;30.50;;;14.20;99.90;;;;;;5030457;28;20823;-75
2023/10/09 00:30:41;;;;;;;76.30;29.98;;;14.20;99.90;;;;;;5030015;28;20454;-77
2023/10/09 00:33:11;;;;;;;62.08;29.85;;;14.10;99.90;;;;;;5029964;28;20386;-75
2023/10/09 00:40:56;;;;;;;72.68;29.80;;;14.20;99.90;;;;;;5030430;28;20397;-75
2023/10/09 00:43:28;;;;;;;69.43;31.73;;;14.20;99.90;;;;;;5029924;28;20387;-76
2023/10/09 00:45:54;;;;;;;68.88;30.08;;;14.20;99.90;;;;;;5028822;28;20893;-76
2023/10/09 00:48:30;;;;;;;64.93;29.53;;;14.10;99.90;;;;;;5030129;28;20476;-77
2023/10/09 00:51:00;;;;;;;65.25;29.70;;;14.20;99.90;;;;;;5030038;28;20387;-76
2023/10/09 00:53:31;;;;;;;67.72;29.35;;;14.20;99.90;;;;;;5029676;28;20858;-76
2023/10/09 00:56:11;;;;;;;72.80;29.88;;;14.20;99.90;;;;;;5030038;28;20387;-75
2023/10/09 00:58:37;;;;;;;61.20;28.02;;;14.30;99.90;;;;;;5030704;28;20417;-76
2023/10/09 01:01:04;;;;;;;60.07;28.60;;;14.30;99.90;;;;;;5033753;28;20457;-76
2023/10/09 01:03:33;;;;;;;61.35;27.35;;;14.30;99.90;;;;;;5033233;28;20448;-75
2023/10/09 01:11:09;;;;;;;60.25;26.90;;;14.20;99.90;;;;;;5033492;28;20402;-75
2023/10/09 01:13:52;;;;;;;57.00;29.00;;;14.30;99.90;;;;;;5033178;28;20407;-76
2023/10/09 01:16:21;;;;;;;53.08;24.92;;;14.30;99.90;;;;;;5032060;28;20387;-76
2023/10/09 01:18:57;;;;;;;60.38;26.15;;;14.40;99.90;;;;;;5033832;28;20387;-76
2023/10/09 01:21:24;;;;;;;57.22;26.20;;;14.40;99.90;;;;;;5033203;28;20391;-76
2023/10/09 01:26:39;;;;;;;57.92;25.92;;;14.40;99.90;;;;;;5033216;28;20804;-75
2023/10/09 01:29:10;;;;;;;58.50;26.55;;;14.40;99.90;;;;;;5033031;28;20439;-75
2023/10/09 01:31:43;;;;;;;62.80;26.40;;;14.30;99.90;;;;;;5032958;28;20440;-75
2023/10/09 01:34:09;;;;;;;52.03;25.80;;;14.30;99.90;;;;;;5033467;28;20467;-74
2023/10/09 01:36:39;;;;;;;54.78;24.60;;;14.30;99.90;;;;;;5035979;28;20391;-75
2023/10/09 01:39:25;;;;;;;56.67;25.02;;;14.30;99.90;;;;;;5035853;28;20415;-75
2023/10/09 01:42:05;;;;;;;56.03;25.15;;;14.40;99.90;;;;;;5032865;28;20379;-76
2023/10/09 01:44:35;;;;;;;50.88;24.27;;;14.40;99.90;;;;;;5033129;28;20383;-75
2023/10/09 01:47:13;;;;;;;54.95;25.10;;;14.40;99.90;;;;;;5031958;28;20486;-75
2023/10/09 01:49:43;;;;;;;55.33;25.02;;;14.40;99.90;;;;;;5032879;28;20403;-75
2023/10/09 01:52:15;;;;;;;52.65;25.35;;;14.40;99.90;;;;;;5032519;28;20873;-75
2023/10/09 01:54:42;;;;;;;56.05;25.48;;;14.40;99.90;;;;;;5032543;28;20379;-74
2023/10/09 01:57:12;;;;;;;53.47;23.55;;;14.40;99.90;;;;;;5032539;28;20386;-75
2023/10/09 01:59:46;;;;;;;51.85;24.35;;;14.30;99.90;;;;;;5032550;28;20379;-74
2023/10/09 02:02:33;;;;;;;49.63;23.10;;;14.40;99.90;;;;;;5032694;28;20466;-75
2023/10/09 02:07:40;;;;;;;51.85;24.65;;;14.40;99.90;;;;;;5032649;28;20398;-75
2023/10/09 02:13:09;;;;;;;50.85;24.02;;;14.40;99.90;;;;;;5032220;28;20399;-75
2023/10/09 02:18:18;;;;;;;43.77;22.63;;;14.50;99.90;;;;;;5032490;28;20469;-74
2023/10/09 02:24:49;;;;;;;45.13;22.63;;;14.50;99.90;;;;;;5032103;28;20725;-74
2023/10/09 02:26:46;;;;;;;49.90;22.70;;;14.50;99.90;;;;;;5032032;28;20534;-75
2023/10/09 02:31:40;;;;;;;45.35;21.73;;;14.50;99.90;;;;;;5032986;28;20506;-76
2023/10/09 02:34:08;;;;;;;40.85;21.42;;;14.50;99.90;;;;;;5033322;28;20377;-76
2023/10/09 02:36:43;;;;;;;50.37;21.87;;;14.50;99.90;;;;;;5033280;28;20375;-76
2023/10/09 02:39:24;;;;;;;40.65;21.33;;;14.50;99.90;;;;;;5033689;28;20478;-76
2023/10/09 02:41:58;;;;;;;44.28;21.40;;;14.40;99.90;;;;;;5033330;28;20466;-75
2023/10/09 02:44:26;;;;;;;38.78;20.58;;;14.40;99.90;;;;;;5033309;28;20394;-76
2023/10/09 02:46:57;;;;;;;41.70;21.45;;;14.50;99.90;;;;;;5032572;28;20762;-76
2023/10/09 02:49:23;;;;;;;41.08;20.60;;;14.50;99.90;;;;;;5030476;28;20460;-76
2023/10/09 02:51:53;;;;;;;42.35;20.65;;;14.40;99.90;;;;;;5030684;28;20379;-76
2023/10/09 02:54:18;;;;;;;39.05;20.77;;;14.50;99.90;;;;;;5031867;28;20391;-76
2023/10/09 02:56:48;;;;;;;43.30;22.80;;;14.50;99.90;;;;;;5031680;28;20391;-77
2023/10/09 02:59:14;;;;;;;42.03;20.87;;;14.50;99.90;;;;;;5031656;28;20430;-76
2023/10/09 03:01:40;;;;;;;44.88;21.42;;;14.50;99.90;;;;;;5031454;28;20383;-76
2023/10/09 03:04:10;;;;;;;42.28;20.98;;;14.50;99.90;;;;;;5031406;28;20395;-75
2023/10/09 03:06:43;;;;;;;38.23;20.20;;;14.60;99.90;;;;;;5031555;28;20386;-76
2023/10/09 03:09:17;;;;;;;39.67;21.70;;;14.60;99.90;;;;;;5032385;28;20889;-75
2023/10/09 03:11:48;;;;;;;38.15;20.27;;;14.60;99.90;;;;;;5031809;28;20418;-74
2023/10/09 03:14:15;;;;;;;36.37;21.40;;;14.60;99.90;;;;;;5032482;28;20464;-74
2023/10/09 03:16:41;;;;;;;44.87;20.30;;;14.60;99.90;;;;;;5035777;28;20491;-75
2023/10/09 03:19:07;;;;;;;40.43;19.70;;;14.70;99.90;;;;;;5035670;28;20382;-75
2023/10/09 03:21:32;;;;;;;32.87;18.30;;;14.70;99.90;;;;;;5032587;28;20395;-75
2023/10/09 03:23:58;;;;;;;36.10;20.03;;;14.80;99.90;;;;;;5031679;28;20464;-74
2023/10/09 03:26:25;;;;;;;39.53;19.40;;;14.80;99.90;;;;;;5031714;28;20379;-74
2023/10/09 03:28:52;;;;;;;35.88;19.60;;;14.80;99.90;;;;;;5031825;28;20407;-75
2023/10/09 03:31:18;;;;;;;37.72;19.23;;;14.90;99.90;;;;;;5031327;28;20401;-74
2023/10/09 03:33:44;;;;;;;36.47;18.97;;;14.80;99.90;;;;;;5031361;28;20371;-75
2023/10/09 03:36:09;;;;;;;35.23;18.77;;;14.80;99.90;;;;;;5031751;28;20434;-75
2023/10/09 03:38:36;;;;;;;38.00;18.97;;;14.80;99.90;;;;;;5031222;28;20387;-75
2023/10/09 03:41:06;;;;;;;37.42;19.10;;;14.80;99.90;;;;;;5031715;28;20387;-76
2023/10/09 03:43:39;;;;;;;37.83;19.10;;;14.80;99.90;;;;;;5031354;28;20413;-75
2023/10/09 03:46:08;;;;;;;43.40;17.92;;;14.80;99.90;;;;;;5042193;28;20387;-74
2023/10/09 03:48:35;;;;;;;32.22;18.85;;;14.90;99.90;;;;;;5031818;28;20763;-74
2023/10/09 03:51:12;;;;;;;36.47;17.83;;;14.90;99.90;;;;;;5031744;28;20379;-75
2023/10/09 03:53:39;;;;;;;32.27;17.40;;;14.90;99.90;;;;;;5031262;28;20409;-74
2023/10/09 03:56:15;;;;;;;38.63;19.48;;;14.90;99.90;;;;;;5031492;28;20417;-75
2023/10/09 03:58:43;;;;;;;33.20;18.20;;;14.90;99.90;;;;;;5031660;28;20389;-75
2023/10/09 04:03:49;;;;;;;37.13;18.30;;;14.90;99.90;;;;;;5031320;28;20857;-74
2023/10/09 04:06:17;;;;;;;30.30;17.35;;;14.90;99.90;;;;;;5031525;28;20841;-75
2023/10/09 04:08:48;;;;;;;32.75;17.85;;;14.90;99.90;;;;;;5031814;28;20419;-74
2023/10/09 04:11:17;;;;;;;38.95;17.52;;;14.90;99.90;;;;;;5032168;28;20395;-74
2023/10/09 04:13:46;;;;;;;42.10;18.88;;;14.90;99.90;;;;;;5031770;28;20383;-75
2023/10/09 04:18:57;;;;;;;33.73;16.97;;;14.90;99.90;;;;;;5031520;28;20399;-75
2023/10/09 04:21:36;;;;;;;39.00;17.75;;;14.90;99.90;;;;;;5031251;28;20391;-75
2023/10/09 04:26:44;;;;;;;30.90;17.55;;;14.90;99.90;;;;;;5031711;28;20757;-76
2023/10/09 04:29:18;;;;;;;34.40;17.00;;;14.80;99.90;;;;;;5032020;28;20498;-75
2023/10/09 04:31:51;;;;;;;32.00;17.85;;;14.90;99.90;;;;;;5031537;28;20456;-75
2023/10/09 04:34:34;;;;;;;30.85;16.75;;;14.90;99.90;;;;;;5033148;28;20415;-75
2023/10/09 04:37:01;;;;;;;27.38;16.45;;;15.00;99.90;;;;;;5034813;28;20379;-75
2023/10/09 04:47:35;;;;;;;32.97;17.20;;;14.90;99.90;;;;;;5034544;28;20383;-76
2023/10/09 04:52:54;;;;;;;36.33;18.20;;;14.90;99.90;;;;;;5034919;28;20908;-76
2023/10/09 04:55:24;;;;;;;31.77;16.03;;;14.90;99.90;;;;;;5036422;28;20414;-75
2023/10/09 04:58:09;;;;;;;36.25;17.08;;;15.00;99.90;;;;;;5035602;28;20383;-76
2023/10/09 05:03:12;;;;;;;28.10;16.20;;;15.00;99.90;;;;;;5035231;28;20405;-76
2023/10/09 05:08:21;;;;;;;32.78;16.38;;;15.00;99.90;;;;;;5030355;28;20788;-77
2023/10/09 05:16:04;;;;;;;25.98;15.20;;;15.00;99.90;;;;;;5041049;28;20399;-75
2023/10/09 05:18:36;;;;;;;31.47;16.63;;;14.90;99.90;;;;;;5041027;28;20404;-75
2023/10/09 05:21:35;;;;;;;29.80;16.00;;;14.90;99.90;;;;;;5055456;28;20486;-75
2023/10/09 05:24:15;;;;;;;33.55;15.68;;;14.90;99.90;;;;;;5044528;28;20399;-75
2023/10/09 05:29:34;;;;;;;28.33;15.40;;;15.10;99.90;;;;;;5059073;28;20423;-76
2023/10/09 05:32:15;;;;;;;27.30;16.58;;;15.10;99.90;;;;;;5063849;28;20374;-76
2023/10/09 05:37:32;;;;;;;29.70;14.70;;;15.00;99.90;;;;;;5039411;28;20449;-75
2023/10/09 05:50:34;;;;;;;26.67;14.70;;;15.40;99.90;;;;;;5046733;28;20941;-76
2023/10/09 05:57:00;;;;;;;24.52;15.35;;;15.40;97.60;;;;;;5037072;28;20375;-76
2023/10/09 06:01:05;;;;;;;29.63;16.05;;;15.40;99.40;;;;;;5035710;28;20422;-76
2023/10/09 06:04:19;;;;;;;26.42;14.30;;;15.30;99.90;;;;;;5033913;28;20407;-75
2023/10/09 06:06:45;;;;;;;27.95;15.10;;;15.40;98.50;;;;;;5033909;28;20586;-76
2023/10/09 06:14:24;;;;;;;26.35;14.68;;;15.70;93.10;;;;;;5035689;28;20394;-76
2023/10/09 06:19:43;;;;;;;26.13;14.30;;;16.10;83.60;;;;;;5032450;28;20868;-76
2023/10/09 06:24:57;;;;;;;25.40;12.80;;;16.40;78.30;;;;;;5014210;28;20933;-74
2023/10/09 06:27:56;;;;;;;24.95;13.75;;;16.40;77.70;;;;;;5013397;28;20435;-76
2023/10/09 06:30:23;;;;;;;23.15;13.07;;;16.50;75.30;;;;;;5011919;28;20428;-74
2023/10/09 06:35:30;;;;;;;23.53;13.30;;;16.80;70.80;;;;;;5011384;28;20419;-76
2023/10/09 06:58:55;;;;;;;29.37;13.23;;;17.20;65.30;;;;;;5010474;28;20380;-76
2023/10/09 07:12:20;;;;;;;20.33;12.77;;;17.40;61.90;;;;;;5028103;28;20960;-75
2023/10/09 07:17:15;;;;;;;27.45;13.40;;;17.50;61.60;;;;;;5023241;28;20463;-75
2023/10/09 07:25:02;;;;;;;31.90;14.52;;;17.80;57.00;;;;;;5031705;28;20454;-76
2023/10/09 07:27:43;;;;;;;29.33;12.88;;;17.90;56.80;;;;;;5030856;28;20391;-76
2023/10/09 07:38:09;;;;;;;21.40;12.68;;;18.30;53.30;;;;;;5031028;28;20355;-76
2023/10/09 07:43:28;;;;;;;28.50;13.10;;;18.40;52.00;;;;;;5030456;28;20437;-77
2023/10/09 07:48:26;;;;;;;25.08;13.95;;;18.60;50.80;;;;;;5030182;28;20448;-76
2023/10/09 07:50:57;;;;;;;31.83;14.10;;;18.50;52.00;;;;;;5030084;28;21751;-76
2023/10/09 07:53:43;;;;;;;27.55;14.20;;;18.40;52.10;;;;;;5030603;28;20383;-75
2023/10/09 07:56:08;;;;;;;26.98;12.18;;;18.40;53.10;;;;;;5031159;28;20410;-76
2023/10/09 07:58:45;;;;;;;30.30;13.27;;;18.40;54.10;;;;;;5028945;28;20442;-77
2023/10/09 08:04:04;;;;;;;22.15;12.73;;;18.40;53.50;;;;;;5030744;28;20429;-75
2023/10/09 08:06:39;;;;;;;24.20;12.85;;;18.60;52.30;;;;;;5029871;28;20391;-76
2023/10/09 08:14:41;;;;;;;27.38;14.18;;;18.60;52.00;;;;;;5029967;28;20393;-77
2023/10/09 08:17:11;;;;;;;26.10;13.38;;;18.60;51.90;;;;;;5030716;28;20391;-76
2023/10/09 08:19:56;;;;;;;25.88;13.05;;;18.60;51.20;;;;;;5029537;28;20427;-76
2023/10/09 08:24:58;;;;;;;28.70;13.23;;;18.80;49.70;;;;;;5030496;28;20390;-75
2023/10/09 08:33:01;;;;;;;28.73;13.18;;;19.50;45.10;;;;;;5029707;28;20454;-76
2023/10/09 08:35:32;;;;;;;24.23;12.85;;;19.50;44.80;;;;;;5029718;28;20398;-76
2023/10/09 08:38:03;;;;;;;23.85;13.07;;;19.40;44.90;;;;;;5030062;28;20722;-77
2023/10/09 08:40:42;;;;;;;25.98;14.38;;;19.40;45.40;;;;;;5029550;28;20478;-77
2023/10/09 08:43:19;;;;;;;23.20;13.40;;;19.70;44.60;;;;;;5025077;28;20494;-75
2023/10/09 08:46:00;;;;;;;24.55;13.27;;;19.60;45.00;;;;;;5047610;28;20386;-73
2023/10/09 08:48:27;;;;;;;27.50;13.02;;;19.50;45.70;;;;;;5029060;28;20401;-74
2023/10/09 08:50:55;;;;;;;23.73;12.88;;;19.40;46.80;;;;;;5009816;28;20416;-75
2023/10/09 08:53:23;;;;;;;26.83;13.68;;;19.30;47.50;;;;;;5009529;28;20938;-74
2023/10/09 08:55:51;;;;;;;23.83;13.60;;;19.30;47.40;;;;;;5009986;28;20381;-75
2023/10/09 08:58:36;;;;;;;23.15;13.45;;;19.30;48.30;;;;;;5009839;28;20465;-76
2023/10/09 09:01:02;;;;;;;26.70;13.75;;;19.30;47.40;;;;;;5027000;28;20886;-75
2023/10/09 09:03:40;;;;;;;28.60;14.55;;;19.50;47.30;;;;;;5019277;28;20400;-74
2023/10/09 09:06:06;;;;;;;308.25;198.10;;;19.50;46.80;;;;;;5008113;28;20396;-75
2023/10/09 09:08:36;;;;;;;212.60;123.32;;;19.40;47.60;;;;;;5007686;28;20392;-76
2023/10/09 09:11:12;;;;;;;150.30;88.03;;;19.50;48.50;;;;;;5008169;28;20471;-77
2023/10/09 09:13:48;;;;;;;270.90;164.25;;;19.50;48.40;;;;;;5007843;28;20381;-76
2023/10/09 09:16:17;;;;;;;246.32;130.23;;;19.70;48.20;;;;;;5007696;28;20423;-77
2023/10/09 09:21:30;;;;;;;70.25;34.65;;;19.90;45.20;;;;;;5030888;28;20781;-77
2023/10/09 09:24:01;;;;;;;48.00;25.67;;;20.00;44.90;;;;;;5032254;28;20398;-78
2023/10/09 09:26:44;;;;;;;41.20;22.00;;;20.10;43.30;;;;;;5031193;28;20529;-76
2023/10/09 09:29:11;;;;;;;63.70;34.83;;;20.30;43.50;;;;;;5031247;28;20610;-76
2023/10/09 09:31:41;;;;;;;192.45;114.35;;;20.50;42.10;;;;;;5030545;28;20398;-75
2023/10/09 09:34:16;;;;;;;27.88;14.18;;;20.80;41.20;;;;;;5013178;28;20625;-76
2023/10/09 09:36:58;;;;;;;25.08;12.60;;;21.10;38.60;;;;;;5012093;28;20929;-76
2023/10/09 09:39:27;;;;;;;31.67;13.17;;;21.40;37.20;;;;;;5031064;28;20472;-78
2023/10/09 09:42:03;;;;;;;29.42;12.63;;;21.40;37.20;;;;;;5029519;28;20422;-76
2023/10/09 09:44:32;;;;;;;24.15;11.23;;;21.30;36.50;;;;;;5023987;28;20404;-77
2023/10/09 09:47:01;;;;;;;29.00;12.10;;;21.40;35.60;;;;;;5013570;28;20772;-77
2023/10/09 09:49:31;;;;;;;25.63;12.30;;;21.20;35.60;;;;;;5010652;28;20942;-74
2023/10/09 09:52:09;;;;;;;26.85;11.80;;;21.00;36.20;;;;;;5018138;28;20402;-77
2023/10/09 09:54:39;;;;;;;22.27;11.98;;;20.90;36.80;;;;;;5030369;28;20417;-77
2023/10/09 09:57:10;;;;;;;22.88;12.20;;;20.90;36.90;;;;;;5030503;28;20379;-77
2023/10/09 09:59:41;;;;;;;23.58;11.77;;;20.90;36.50;;;;;;5030715;28;20893;-77
2023/10/09 10:02:17;;;;;;;21.98;11.10;;;20.90;37.20;;;;;;5022287;28;20534;-75
2023/10/09 10:04:49;;;;;;;23.80;11.93;;;21.00;36.90;;;;;;5011286;28;20385;-76
2023/10/09 10:07:17;;;;;;;22.55;11.20;;;21.00;35.90;;;;;;5010538;28;20385;-76
2023/10/09 10:09:44;;;;;;;23.55;11.48;;;21.10;35.60;;;;;;5011671;28;20511;-76
2023/10/09 10:12:11;;;;;;;24.08;11.82;;;21.30;34.90;;;;;;5037687;28;20407;-77
2023/10/09 10:15:37;;;;;;;21.98;11.30;;;21.30;34.30;;;;;;5040304;28;21238;-75
2023/10/09 10:18:07;;;;;;;24.95;11.10;;;21.20;34.80;;;;;;5041195;28;20390;-76
2023/10/09 10:20:52;;;;;;;21.73;11.23;;;21.30;34.10;;;;;;5045690;28;20390;-76
2023/10/09 10:23:19;;;;;;;19.80;10.68;;;21.50;34.00;;;;;;5034729;28;20379;-75
2023/10/09 10:25:57;;;;;;;23.73;12.10;;;21.60;33.30;;;;;;5033051;28;20482;-77
2023/10/09 10:28:45;;;;;;;24.27;11.50;;;21.60;33.30;;;;;;5033315;28;20383;-77
2023/10/09 10:31:13;;;;;;;24.17;11.10;;;21.60;33.10;;;;;;5030788;28;20489;-76
2023/10/09 10:33:54;;;;;;;23.67;11.50;;;21.80;33.50;;;;;;5031476;28;20393;-77
2023/10/09 10:36:24;;;;;;;26.75;11.82;;;21.70;32.80;;;;;;5030326;28;20727;-76
2023/10/09 10:39:05;;;;;;;21.50;10.93;;;21.60;32.90;;;;;;5030414;28;20426;-75
2023/10/09 10:41:36;;;;;;;17.75;10.20;;;21.60;32.90;;;;;;5031946;28;20419;-76
2023/10/09 10:46:51;;;;;;;24.90;11.23;;;21.70;32.90;;;;;;5031354;28;20387;-76
2023/10/09 10:49:21;;;;;;;24.23;10.80;;;21.60;33.30;;;;;;5031710;28;20411;-76
2023/10/09 10:51:49;;;;;;;26.03;12.20;;;21.40;33.20;;;;;;5031136;28;20893;-77
2023/10/09 10:56:52;;;;;;;24.23;12.18;;;21.40;33.60;;;;;;5032152;28;20882;-75
2023/10/09 10:59:27;;;;;;;24.83;11.50;;;21.50;33.40;;;;;;5031812;28;20398;-76
2023/10/09 11:01:57;;;;;;;21.83;11.82;;;21.60;32.50;;;;;;5031488;28;20487;-77
2023/10/09 11:07:06;;;;;;;21.92;11.73;;;21.40;32.80;;;;;;5031962;28;20913;-76
2023/10/09 11:12:37;;;;;;;26.85;12.15;;;21.30;33.60;;;;;;5031286;28;20427;-74
2023/10/09 11:26:40;;;;;;;21.65;13.02;;;21.70;32.90;;;;;;5022873;28;20525;-76
2023/10/09 11:32:05;;;;;;;22.02;11.35;;;21.80;32.50;;;;;;5030933;28;20437;-76
2023/10/09 11:34:36;;;;;;;24.10;12.53;;;22.00;32.00;;;;;;5031140;28;20379;-76
2023/10/09 11:37:11;;;;;;;23.95;12.43;;;22.00;31.90;;;;;;5030684;28;20401;-76
2023/10/09 11:39:50;;;;;;;26.50;12.27;;;21.90;32.80;;;;;;5031061;28;20387;-76
2023/10/09 11:42:35;;;;;;;24.15;12.50;;;21.90;33.00;;;;;;5030486;28;20383;-76
2023/10/09 11:45:19;;;;;;;22.65;11.60;;;21.80;32.80;;;;;;5030885;28;20394;-76
2023/10/09 11:47:56;;;;;;;21.52;11.10;;;21.80;32.80;;;;;;5030723;28;20383;-74
2023/10/09 11:53:32;;;;;;;20.63;12.15;;;21.90;32.30;;;;;;5030502;28;20382;-75
2023/10/09 11:55:58;;;;;;;25.88;12.02;;;21.90;32.20;;;;;;5030864;28;20382;-77
2023/10/09 11:58:24;;;;;;;20.00;10.50;;;22.20;31.80;;;;;;5029547;28;20417;-77
2023/10/09 12:00:59;;;;;;;24.17;11.63;;;22.20;31.90;;;;;;5031402;28;20466;-76
2023/10/09 12:03:29;;;;;;;23.40;11.55;;;22.20;31.80;;;;;;5031182;28;20509;-77
2023/10/09 12:05:56;;;;;;;26.90;11.43;;;22.10;31.80;;;;;;5031361;28;20750;-77
2023/10/09 12:08:26;;;;;;;19.80;11.10;;;22.30;31.50;;;;;;5032815;28;20893;-75
2023/10/09 12:10:55;;;;;;;22.60;11.25;;;22.40;30.90;;;;;;5019146;28;20400;-74
2023/10/09 12:13:23;;;;;;;23.33;10.70;;;22.60;31.10;;;;;;5010256;28;20975;-76
2023/10/09 12:15:52;;;;;;;23.73;11.10;;;22.70;30.30;;;;;;5011594;28;20401;-76
2023/10/09 12:18:19;;;;;;;23.52;11.20;;;22.70;30.30;;;;;;5013512;28;20385;-77
2023/10/09 12:20:50;;;;;;;24.13;10.73;;;22.60;30.10;;;;;;5043220;28;20397;-77
2023/10/09 12:23:18;;;;;;;21.20;10.63;;;22.50;30.40;;;;;;5030437;28;20383;-76
2023/10/09 12:25:46;;;;;;;25.42;11.80;;;22.60;30.80;;;;;;5030388;28;20401;-76
2023/10/09 12:28:12;;;;;;;20.73;11.00;;;22.60;30.40;;;;;;5034808;28;20749;-76
2023/10/09 12:30:41;;;;;;;23.70;11.80;;;22.40;29.90;;;;;;5050018;28;20408;-76
2023/10/09 12:33:09;;;;;;;22.00;11.63;;;22.30;30.90;;;;;;5049909;28;20389;-76
2023/10/09 12:35:38;;;;;;;21.48;10.82;;;22.10;31.10;;;;;;5034581;28;20388;-76
2023/10/09 12:38:09;;;;;;;21.73;11.70;;;22.00;31.20;;;;;;5038295;28;20481;-76
2023/10/09 12:40:41;;;;;;;20.20;11.20;;;22.00;31.00;;;;;;5032629;28;20391;-77
2023/10/09 12:43:15;;;;;;;22.55;11.50;;;21.90;31.40;;;;;;5010810;28;20464;-76
2023/10/09 12:45:41;;;;;;;20.92;9.77;;;22.10;31.50;;;;;;5023097;28;20426;-75
2023/10/09 12:48:09;;;;;;;32.10;11.20;;;22.20;31.30;;;;;;5051705;28;20403;-76
2023/10/09 12:50:41;;;;;;;25.90;11.43;;;22.30;30.90;;;;;;5038256;28;20495;-76
2023/10/09 12:53:08;;;;;;;20.83;11.20;;;22.20;31.00;;;;;;5030301;28;20383;-76
2023/10/09 12:55:41;;;;;;;23.00;10.60;;;22.20;31.30;;;;;;5032537;28;20858;-76
2023/10/09 12:58:08;;;;;;;18.67;10.40;;;22.20;31.60;;;;;;5034276;28;20406;-76
2023/10/09 13:00:44;;;;;;;19.60;10.73;;;22.20;31.60;;;;;;5035316;28;20395;-77
2023/10/09 13:03:17;;;;;;;22.10;11.98;;;22.30;31.10;;;;;;5049080;28;20496;-76
2023/10/09 13:05:56;;;;;;;21.67;11.00;;;22.20;30.90;;;;;;5055130;28;20389;-77
2023/10/09 13:08:23;;;;;;;23.05;10.82;;;22.00;31.90;;;;;;5035682;28;20420;-76
2023/10/09 13:11:01;;;;;;;23.63;11.23;;;22.10;32.30;;;;;;5011524;28;20891;-77
2023/10/09 13:13:40;;;;;;;21.60;11.50;;;22.20;31.80;;;;;;5012131;28;20495;-76
2023/10/09 13:16:20;;;;;;;21.40;11.05;;;22.20;31.80;;;;;;5010575;28;20440;-77
2023/10/09 13:18:52;;;;;;;22.70;10.60;;;22.20;31.60;;;;;;5013208;28;20807;-76
2023/10/09 13:21:23;;;;;;;19.57;11.03;;;22.20;31.30;;;;;;5012789;28;20780;-77
2023/10/09 13:23:54;;;;;;;25.80;10.90;;;22.20;31.40;;;;;;5019358;28;20448;-77
2023/10/09 13:26:24;;;;;;;23.65;11.10;;;22.30;30.60;;;;;;5012722;28;20400;-77
2023/10/09 13:28:52;;;;;;;25.60;12.25;;;22.40;30.90;;;;;;5016318;28;21008;-77
2023/10/09 13:31:20;;;;;;;26.25;13.13;;;22.30;30.50;;;;;;5032315;28;20886;-77
2023/10/09 13:33:47;;;;;;;26.02;12.40;;;22.10;30.60;;;;;;5025593;28;20407;-76
2023/10/09 13:36:26;;;;;;;22.27;12.50;;;22.20;30.60;;;;;;5012790;28;20769;-76
2023/10/09 13:39:21;;;;;;;26.27;14.10;;;22.50;30.20;;;;;;5014256;28;20391;-76
2023/10/09 13:41:48;;;;;;;31.85;12.70;;;22.60;28.80;;;;;;5018761;28;20439;-76
2023/10/09 13:44:15;;;;;;;26.25;13.30;;;22.60;29.40;;;;;;5020942;28;20455;-75
2023/10/09 13:46:44;;;;;;;27.15;13.85;;;22.40;29.70;;;;;;5041093;28;20390;-77
2023/10/09 13:49:13;;;;;;;25.45;13.90;;;22.20;30.50;;;;;;5054468;28;20440;-76
2023/10/09 13:51:45;;;;;;;26.50;15.00;;;22.20;30.70;;;;;;5012892;28;20488;-75
2023/10/09 13:54:19;;;;;;;29.20;14.80;;;22.10;31.00;;;;;;5028421;28;20487;-76
2023/10/09 13:56:45;;;;;;;24.70;14.40;;;22.20;31.20;;;;;;5020211;28;20877;-74
2023/10/09 13:59:10;;;;;;;29.77;14.07;;;22.20;31.10;;;;;;5030865;28;20455;-74
2023/10/09 14:01:39;;;;;;;25.00;13.60;;;22.50;30.60;;;;;;5030405;28;20398;-76
2023/10/09 14:04:08;;;;;;;25.52;14.20;;;22.50;30.70;;;;;;5022953;28;20396;-76
2023/10/09 14:06:34;;;;;;;28.73;13.77;;;22.30;31.20;;;;;;5011188;28;20875;-75
2023/10/09 14:09:05;;;;;;;24.15;13.50;;;22.50;30.70;;;;;;5011248;28;20496;-73
2023/10/09 14:11:39;;;;;;;21.80;13.10;;;23.00;29.60;;;;;;5018516;28;20890;-78
2023/10/09 14:14:09;;;;;;;24.80;14.38;;;23.20;28.70;;;;;;5028839;28;20394;-76
2023/10/09 14:16:37;;;;;;;26.75;13.73;;;22.90;29.50;;;;;;5031365;28;20440;-77
2023/10/09 14:19:07;;;;;;;30.23;16.30;;;22.90;29.90;;;;;;5031273;28;20551;-77
2023/10/09 14:21:37;;;;;;;30.23;15.30;;;22.70;30.00;;;;;;5031080;28;20391;-76
2023/10/09 14:24:14;;;;;;;27.05;15.18;;;22.60;30.80;;;;;;5031000;28;20402;-77
2023/10/09 14:26:45;;;;;;;30.67;14.30;;;22.70;30.70;;;;;;5019482;28;20602;-76
2023/10/09 14:29:16;;;;;;;31.48;14.60;;;22.80;30.40;;;;;;5011554;28;20776;-76
2023/10/09 14:31:49;;;;;;;29.65;14.45;;;22.80;30.00;;;;;;5012968;28;20398;-77
2023/10/09 14:34:14;;;;;;;28.77;14.67;;;23.10;29.50;;;;;;5030520;28;20845;-77
2023/10/09 14:36:43;;;;;;;29.23;15.40;;;23.10;29.50;;;;;;5028896;28;20907;-75
2023/10/09 14:39:13;;;;;;;26.80;15.25;;;23.00;29.60;;;;;;5016862;28;20404;-77
2023/10/09 14:41:40;;;;;;;27.07;14.37;;;23.00;29.90;;;;;;5030678;28;20385;-75
2023/10/09 14:44:06;;;;;;;25.88;14.10;;;23.10;29.80;;;;;;5028886;28;20394;-75
2023/10/09 14:46:31;;;;;;;27.90;14.57;;;23.20;29.80;;;;;;5023964;28;20393;-76
2023/10/09 14:48:57;;;;;;;28.08;14.10;;;23.10;29.50;;;;;;5035503;28;20463;-76
2023/10/09 14:51:26;;;;;;;26.37;13.77;;;23.10;29.70;;;;;;5017840;28;20408;-75
2023/10/09 14:53:58;;;;;;;27.88;14.07;;;23.30;29.40;;;;;;5036183;28;20476;-77
2023/10/09 14:56:30;;;;;;;21.88;13.05;;;23.30;28.90;;;;;;5009582;28;20753;-76
2023/10/09 14:58:58;;;;;;;27.52;13.80;;;23.00;30.50;;;;;;5013396;28;20384;-75
2023/10/09 15:01:25;;;;;;;27.98;13.30;;;22.70;31.50;;;;;;5051344;28;20389;-75
2023/10/09 15:03:54;;;;;;;25.95;15.00;;;22.80;31.20;;;;;;5051848;28;20424;-76
2023/10/09 15:06:20;;;;;;;32.88;15.10;;;22.60;31.20;;;;;;5052037;28;20460;-75
2023/10/09 15:08:46;;;;;;;28.67;14.73;;;22.50;31.70;;;;;;5051227;28;20401;-77
2023/10/09 15:11:12;;;;;;;28.75;15.63;;;22.50;31.70;;;;;;5063278;22;20389;-75
2023/10/09 15:13:39;;;;;;;29.73;14.27;;;22.40;31.70;;;;;;4993526;28;20754;-75
2023/10/09 15:16:05;;;;;;;27.85;14.90;;;22.30;32.10;;;;;;5009518;28;20406;-74
2023/10/09 15:18:33;;;;;;;30.17;13.38;;;22.40;32.10;;;;;;4994784;28;20383;-75
2023/10/09 15:20:59;;;;;;;29.15;13.20;;;22.50;32.20;;;;;;4994383;28;20387;-75
2023/10/09 15:23:25;;;;;;;24.52;13.80;;;22.80;31.70;;;;;;4993556;28;20379;-74
2023/10/09 15:25:51;;;;;;;29.88;13.50;;;22.90;31.00;;;;;;4993132;28;20383;-75
2023/10/09 15:28:19;;;;;;;25.87;12.70;;;23.40;29.90;;;;;;4993283;28;20379;-76
2023/10/09 15:30:47;;;;;;;28.45;13.00;;;23.60;29.50;;;;;;4992695;28;20402;-75
2023/10/09 15:33:16;;;;;;;28.02;13.43;;;23.50;29.00;;;;;;4992691;28;20405;-73
2023/10/09 15:35:49;;;;;;;25.10;13.90;;;23.60;28.80;;;;;;4993355;28;20382;-75
2023/10/09 15:38:15;;;;;;;22.10;13.10;;;23.60;28.60;;;;;;4993643;28;20745;-73
2023/10/09 15:40:43;;;;;;;22.77;13.07;;;23.40;28.80;;;;;;4993574;28;20390;-75
2023/10/09 15:43:13;;;;;;;23.60;13.32;;;23.30;29.30;;;;;;4988297;28;20392;-75
2023/10/09 15:45:44;;;;;;;26.83;13.90;;;23.00;29.90;;;;;;5000855;28;20400;-73
2023/10/09 15:48:13;;;;;;;25.50;12.80;;;22.70;31.00;;;;;;5011785;28;20446;-74
2023/10/09 15:50:44;;;;;;;29.02;14.57;;;22.60;31.60;;;;;;4992591;28;20765;-73
2023/10/09 15:53:10;;;;;;;25.48;13.70;;;22.40;32.00;;;;;;4994496;28;20923;-76
2023/10/09 15:55:38;;;;;;;27.17;13.32;;;22.20;32.90;;;;;;4993802;28;20425;-76
2023/10/09 15:58:03;;;;;;;26.33;13.70;;;22.10;33.30;;;;;;4995140;28;20870;-76
2023/10/09 16:00:29;;;;;;;20.97;13.60;;;21.90;34.00;;;;;;4996607;28;20405;-73